createdAt,value
2022-09-21T00:01:29.222Z,4.10
2022-09-21T00:04:00.103Z,2.65
2022-09-21T00:06:30.228Z,2.42
2022-09-21T00:08:57.938Z,4.85
2022-09-21T00:11:29.228Z,3.60
2022-09-21T00:14:01.018Z,3.70
2022-09-21T00:16:32.044Z,4.47
2022-09-21T00:19:00.807Z,5.20
2022-09-21T00:21:28.570Z,6.70
2022-09-21T00:23:56.347Z,3.58
2022-09-21T00:26:26.383Z,5.57
2022-09-21T00:28:55.891Z,5.97
2022-09-21T00:31:24.078Z,6.53
2022-09-21T00:33:52.337Z,4.97
2022-09-21T00:36:22.491Z,4.03
2022-09-21T00:38:53.267Z,5.65
2022-09-21T00:41:21.227Z,6.30
2022-09-21T00:44:10.997Z,3.95
2022-09-21T00:46:40.357Z,6.10
2022-09-21T00:49:10.000Z,6.90
2022-09-21T00:51:38.148Z,5.55
2022-09-21T00:54:10.587Z,12.35
2022-09-21T00:56:38.707Z,7.00
2022-09-21T00:59:07.007Z,7.25
2022-09-21T01:01:34.883Z,6.35
2022-09-21T01:04:03.153Z,5.72
2022-09-21T01:06:33.512Z,5.55
2022-09-21T01:09:01.554Z,6.15
2022-09-21T01:11:31.635Z,5.47
2022-09-21T01:14:14.307Z,5.60
2022-09-21T01:16:53.835Z,3.53
2022-09-21T01:19:48.517Z,5.95
2022-09-21T01:22:15.907Z,5.38
2022-09-21T01:25:06.626Z,4.93
2022-09-21T01:27:49.957Z,6.22
2022-09-21T01:30:21.677Z,6.33
2022-09-21T01:33:13.978Z,4.50
2022-09-21T01:35:49.156Z,5.00
2022-09-21T01:38:42.462Z,6.35
2022-09-21T01:41:13.625Z,4.38
2022-09-21T01:43:46.257Z,4.15
2022-09-21T01:46:21.068Z,5.50
2022-09-21T01:48:54.787Z,3.33
2022-09-21T01:51:27.066Z,4.78
2022-09-21T01:54:03.656Z,4.38
2022-09-21T01:56:40.964Z,3.78
2022-09-21T01:59:40.532Z,5.60
2022-09-21T02:02:17.229Z,5.70
2022-09-21T02:04:45.181Z,3.70
2022-09-21T02:07:12.725Z,3.60
2022-09-21T02:09:40.481Z,3.55
2022-09-21T02:12:08.056Z,3.50
2022-09-21T02:14:37.696Z,3.85
2022-09-21T02:17:15.184Z,4.38
2022-09-21T02:20:07.816Z,4.13
2022-09-21T02:22:43.946Z,4.20
2022-09-21T02:25:18.326Z,4.90
2022-09-21T02:27:51.842Z,5.15
2022-09-21T02:30:27.467Z,4.55
2022-09-21T02:33:01.316Z,4.50
2022-09-21T02:38:06.282Z,7.45
2022-09-21T02:40:41.155Z,4.30
2022-09-21T02:43:31.705Z,4.68
2022-09-21T02:46:07.054Z,4.63
2022-09-21T02:48:40.201Z,4.97
2022-09-21T02:51:16.262Z,4.90
2022-09-21T02:53:46.871Z,3.42
2022-09-21T02:56:16.178Z,3.95
2022-09-21T02:58:48.875Z,4.45
2022-09-21T03:01:17.631Z,5.60
2022-09-21T03:03:45.042Z,3.67
2022-09-21T03:06:12.546Z,5.13
2022-09-21T03:08:40.304Z,5.95
2022-09-21T03:11:07.794Z,5.75
2022-09-21T03:13:37.206Z,5.18
2022-09-21T03:16:07.361Z,6.32
2022-09-21T03:18:35.254Z,5.47
2022-09-21T03:21:03.574Z,8.68
2022-09-21T03:23:31.136Z,8.20
2022-09-21T03:25:58.878Z,6.05
2022-09-21T03:28:26.676Z,7.93
2022-09-21T03:30:54.533Z,6.93
2022-09-21T03:33:22.294Z,5.30
2022-09-21T03:35:49.704Z,9.77
2022-09-21T03:38:17.664Z,9.30
2022-09-21T03:40:46.605Z,7.72
2022-09-21T03:43:14.353Z,12.35
2022-09-21T03:45:42.743Z,9.43
2022-09-21T03:48:11.635Z,9.40
2022-09-21T03:50:39.724Z,10.43
2022-09-21T03:53:07.664Z,9.85
2022-09-21T03:55:35.243Z,8.82
2022-09-21T03:58:02.976Z,10.90
2022-09-21T04:00:30.760Z,13.38
2022-09-21T04:02:58.257Z,11.10
2022-09-21T04:05:26.095Z,11.68
2022-09-21T04:07:54.675Z,11.75
2022-09-21T04:10:26.845Z,11.73
2022-09-21T04:12:58.018Z,13.02
2022-09-21T04:15:25.645Z,14.27
2022-09-21T04:17:54.175Z,10.60
2022-09-21T04:20:22.675Z,14.95
2022-09-21T04:22:51.644Z,11.93
2022-09-21T04:25:19.600Z,13.85
2022-09-21T04:27:47.224Z,10.85
2022-09-21T04:30:16.432Z,13.60
2022-09-21T04:32:44.525Z,10.90
2022-09-21T04:35:12.075Z,14.15
2022-09-21T04:37:39.623Z,13.27
2022-09-21T04:40:08.107Z,11.95
2022-09-21T04:42:36.094Z,12.25
2022-09-21T04:45:04.194Z,12.85
2022-09-21T04:47:31.915Z,13.90
2022-09-21T04:49:59.373Z,13.82
2022-09-21T04:52:27.004Z,15.60
2022-09-21T04:54:54.583Z,14.20
2022-09-21T04:57:22.055Z,13.45
2022-09-21T04:59:49.543Z,15.93
2022-09-21T05:02:17.125Z,18.55
2022-09-21T05:04:48.750Z,14.73
2022-09-21T05:07:18.333Z,15.75
2022-09-21T05:10:04.189Z,15.35
2022-09-21T05:12:33.952Z,16.52
2022-09-21T05:15:02.340Z,14.48
2022-09-21T05:17:29.933Z,17.75
2022-09-21T05:19:57.524Z,15.50
2022-09-21T05:22:24.958Z,19.73
2022-09-21T05:24:52.524Z,16.65
2022-09-21T05:27:20.071Z,18.50
2022-09-21T05:29:47.862Z,19.38
2022-09-21T05:32:27.479Z,18.52
2022-09-21T05:35:04.429Z,20.35
2022-09-21T05:38:11.199Z,20.73
2022-09-21T05:40:38.868Z,19.55
2022-09-21T05:43:06.672Z,16.88
2022-09-21T05:45:34.504Z,15.73
2022-09-21T05:48:19.052Z,21.40
2022-09-21T05:50:46.506Z,18.52
2022-09-21T05:53:41.263Z,15.05
2022-09-21T05:56:25.205Z,15.85
2022-09-21T05:59:01.673Z,16.02
2022-09-21T06:01:38.791Z,15.63
2022-09-21T06:04:14.329Z,18.48
2022-09-21T06:06:41.776Z,20.35
2022-09-21T06:09:09.334Z,17.20
2022-09-21T06:11:37.172Z,17.60
2022-09-21T06:14:04.609Z,19.90
2022-09-21T06:16:42.684Z,19.63
2022-09-21T06:19:13.975Z,18.50
2022-09-21T06:21:41.434Z,15.20
2022-09-21T06:24:09.079Z,17.73
2022-09-21T06:26:36.654Z,18.48
2022-09-21T06:29:04.409Z,18.05
2022-09-21T06:31:31.922Z,21.63
2022-09-21T06:33:59.438Z,18.20
2022-09-21T06:36:26.942Z,17.40
2022-09-21T06:38:54.439Z,17.85
2022-09-21T06:41:21.953Z,16.85
2022-09-21T06:43:49.368Z,15.70
2022-09-21T06:46:16.979Z,11.73
2022-09-21T06:48:44.474Z,13.18
2022-09-21T06:51:11.933Z,13.95
2022-09-21T06:53:39.421Z,12.23
2022-09-21T06:56:08.646Z,11.45
2022-09-21T06:58:37.961Z,18.40
2022-09-21T07:01:08.073Z,15.50
2022-09-21T07:03:36.805Z,12.38
2022-09-21T07:06:05.060Z,11.77
2022-09-21T07:11:21.251Z,12.05
2022-09-21T07:13:48.741Z,11.88
2022-09-21T07:16:16.699Z,13.18
2022-09-21T07:18:44.537Z,13.57
2022-09-21T07:21:12.391Z,14.02
2022-09-21T07:23:39.791Z,12.05
2022-09-21T07:26:11.412Z,9.43
2022-09-21T07:28:39.833Z,13.95
2022-09-21T07:31:16.907Z,11.27
2022-09-21T07:33:47.292Z,11.73
2022-09-21T07:36:16.691Z,10.52
2022-09-21T07:38:44.643Z,10.95
2022-09-21T07:41:14.452Z,13.38
2022-09-21T07:43:42.328Z,9.25
2022-09-21T07:46:14.743Z,11.05
2022-09-21T07:48:42.691Z,9.13
2022-09-21T07:51:12.787Z,7.75
2022-09-21T07:53:42.387Z,5.78
2022-09-21T07:56:12.641Z,7.07
2022-09-21T07:58:59.572Z,10.70
2022-09-21T08:01:27.823Z,8.55
2022-09-21T08:03:58.089Z,7.57
2022-09-21T08:06:28.351Z,8.95
2022-09-21T08:08:58.004Z,9.30
2022-09-21T08:11:27.636Z,9.10
2022-09-21T08:14:00.411Z,6.95
2022-09-21T08:16:29.292Z,10.10
2022-09-21T08:18:56.957Z,6.47
2022-09-21T08:21:24.500Z,6.63
2022-09-21T08:23:52.021Z,7.18
2022-09-21T08:26:20.777Z,6.97
2022-09-21T08:28:53.335Z,9.00
2022-09-21T08:31:24.488Z,7.13
2022-09-21T08:33:53.120Z,7.10
2022-09-21T08:36:21.048Z,7.00
2022-09-21T08:38:48.532Z,4.55
2022-09-21T08:41:20.910Z,11.57
2022-09-21T08:43:58.897Z,10.18
2022-09-21T08:46:29.202Z,4.50
2022-09-21T08:49:00.067Z,6.28
2022-09-21T08:51:32.478Z,8.45
2022-09-21T08:54:25.380Z,6.75
2022-09-21T08:57:04.859Z,6.35
2022-09-21T08:59:34.682Z,4.45
2022-09-21T09:02:43.760Z,7.82
2022-09-21T09:05:11.117Z,7.70
2022-09-21T09:07:56.209Z,6.00
2022-09-21T09:10:39.682Z,3.67
2022-09-21T09:13:24.170Z,5.13
2022-09-21T09:16:35.024Z,7.28
2022-09-21T09:19:24.550Z,5.07
2022-09-21T09:21:52.410Z,7.30
2022-09-21T09:24:39.049Z,8.48
2022-09-21T09:27:15.382Z,6.63
2022-09-21T09:29:49.559Z,7.32
2022-09-21T09:32:18.094Z,5.10
2022-09-21T09:35:20.296Z,4.30
2022-09-21T09:37:50.816Z,7.72
2022-09-21T09:40:34.035Z,5.18
2022-09-21T09:43:12.651Z,5.88
2022-09-21T09:45:51.949Z,6.10
2022-09-21T09:48:29.377Z,3.90
2022-09-21T09:50:56.901Z,4.03
2022-09-21T09:53:26.978Z,3.80
2022-09-21T09:55:57.014Z,4.05
2022-09-21T09:58:37.990Z,4.20
2022-09-21T10:01:06.031Z,4.30
2022-09-21T10:03:33.659Z,2.33
2022-09-21T10:06:01.158Z,5.85
2022-09-21T10:08:48.710Z,5.38
2022-09-21T10:11:17.076Z,4.63
2022-09-21T10:13:49.220Z,2.58
2022-09-21T10:16:22.892Z,3.05
2022-09-21T10:18:59.700Z,2.63
2022-09-21T10:21:37.554Z,4.72
2022-09-21T10:24:14.278Z,1.35
2022-09-21T10:26:50.480Z,2.13
2022-09-21T10:29:29.548Z,3.20
2022-09-21T10:32:26.687Z,1.85
2022-09-21T10:35:07.783Z,4.75
2022-09-21T10:37:38.852Z,1.83
2022-09-21T10:40:25.357Z,2.65
2022-09-21T10:42:56.360Z,3.65
2022-09-21T10:45:27.380Z,3.30
2022-09-21T10:47:56.428Z,3.50
2022-09-21T10:50:30.321Z,2.97
2022-09-21T10:55:32.216Z,2.80
2022-09-21T10:58:00.296Z,3.53
2022-09-21T11:00:35.581Z,1.83
2022-09-21T11:03:42.119Z,2.47
2022-09-21T11:06:14.939Z,3.80
2022-09-21T11:08:51.779Z,3.92
2022-09-21T11:11:47.409Z,2.42
2022-09-21T11:14:25.168Z,1.98
2022-09-21T11:17:21.959Z,1.45
2022-09-21T11:20:05.858Z,2.28
2022-09-21T11:22:56.717Z,0.85
2022-09-21T11:25:36.816Z,1.23
2022-09-21T11:28:16.878Z,6.13
2022-09-21T11:31:19.611Z,1.42
2022-09-21T11:34:31.859Z,2.05
2022-09-21T11:36:59.358Z,7.72
2022-09-21T11:39:40.178Z,2.20
2022-09-21T11:42:26.030Z,1.52
2022-09-21T11:44:57.257Z,2.60
2022-09-21T11:47:46.439Z,1.48
2022-09-21T11:50:32.487Z,1.83
2022-09-21T11:53:52.247Z,3.47
2022-09-21T11:56:25.549Z,1.17
2022-09-21T11:59:14.806Z,2.22
2022-09-21T12:02:05.443Z,2.55
2022-09-21T12:04:36.026Z,2.63
2022-09-21T12:07:14.084Z,2.40
2022-09-21T12:10:02.067Z,3.53
2022-09-21T12:12:38.108Z,1.70
2022-09-21T12:15:11.846Z,1.30
2022-09-21T12:17:55.408Z,1.52
2022-09-21T12:20:25.839Z,5.00
2022-09-21T12:23:02.246Z,1.13
2022-09-21T12:25:38.277Z,2.75
2022-09-21T12:28:24.709Z,4.18
2022-09-21T12:31:00.616Z,3.38
2022-09-21T12:33:40.756Z,3.15
2022-09-21T12:36:14.865Z,3.47
2022-09-21T12:38:46.670Z,3.28
2022-09-21T12:41:53.895Z,1.48
2022-09-21T12:44:29.073Z,3.15
2022-09-21T12:47:09.529Z,1.65
2022-09-21T12:49:43.576Z,1.15
2022-09-21T12:55:25.060Z,1.77
2022-09-21T12:58:23.843Z,1.23
2022-09-21T13:01:06.067Z,1.42
2022-09-21T13:03:41.606Z,2.90
2022-09-21T13:06:30.053Z,1.80
2022-09-21T13:09:02.734Z,2.55
2022-09-21T13:11:34.617Z,1.92
2022-09-21T13:14:04.853Z,3.42
2022-09-21T13:16:36.453Z,1.40
2022-09-21T13:19:16.937Z,3.30
2022-09-21T13:21:44.808Z,1.52
2022-09-21T13:24:28.615Z,1.63
2022-09-21T13:27:00.147Z,2.05
2022-09-21T13:29:31.587Z,1.63
2022-09-21T13:31:59.601Z,1.15
2022-09-21T13:34:28.592Z,2.70
2022-09-21T13:37:20.078Z,3.85
2022-09-21T13:40:16.332Z,3.10
2022-09-21T13:42:47.752Z,4.15
2022-09-21T13:45:18.765Z,2.03
2022-09-21T13:48:00.365Z,3.42
2022-09-21T13:50:43.883Z,1.33
2022-09-21T13:53:17.221Z,2.73
2022-09-21T13:55:54.949Z,2.70
2022-09-21T13:58:30.080Z,2.83
2022-09-21T14:01:04.654Z,2.97
2022-09-21T14:03:38.994Z,3.85
2022-09-21T14:06:20.563Z,3.60
2022-09-21T14:08:49.527Z,2.17
2022-09-21T14:11:23.953Z,1.55
2022-09-21T14:14:06.756Z,1.95
2022-09-21T14:16:34.520Z,1.52
2022-09-21T14:19:04.426Z,1.75
2022-09-21T14:21:31.851Z,1.63
2022-09-21T14:24:08.991Z,2.83
2022-09-21T14:26:36.500Z,7.13
2022-09-21T14:29:37.409Z,1.98
2022-09-21T14:32:13.631Z,1.20
2022-09-21T14:34:42.639Z,3.28
2022-09-21T14:37:27.544Z,1.58
2022-09-21T14:39:56.898Z,1.35
2022-09-21T14:42:29.233Z,4.07
2022-09-21T14:45:02.292Z,4.05
2022-09-21T14:47:47.531Z,1.40
2022-09-21T14:50:24.089Z,1.83
2022-09-21T14:53:09.882Z,2.08
2022-09-21T14:55:40.388Z,4.88
2022-09-21T14:58:27.880Z,3.08
2022-09-21T15:00:55.560Z,6.15
2022-09-21T15:03:30.851Z,1.23
2022-09-21T15:06:01.071Z,8.25
2022-09-21T15:09:19.100Z,3.28
2022-09-21T15:11:56.678Z,3.45
2022-09-21T15:14:46.386Z,1.08
2022-09-21T15:17:26.619Z,2.15
2022-09-21T15:19:59.950Z,3.22
2022-09-21T15:22:28.381Z,3.20
2022-09-21T15:24:59.228Z,2.20
2022-09-21T15:27:33.611Z,1.40
2022-09-21T15:30:04.655Z,7.18
2022-09-21T15:32:41.618Z,1.90
2022-09-21T15:35:20.229Z,1.90
2022-09-21T15:37:48.469Z,1.52
2022-09-21T15:40:28.101Z,2.63
2022-09-21T15:43:17.021Z,1.67
2022-09-21T15:46:05.658Z,1.27
2022-09-21T15:48:42.447Z,1.30
2022-09-21T15:51:15.679Z,1.13
2022-09-21T15:53:47.585Z,3.08
2022-09-21T15:56:27.759Z,1.27
2022-09-21T15:59:09.185Z,1.13
2022-09-21T16:01:44.185Z,3.20
2022-09-21T16:04:17.002Z,1.35
2022-09-21T16:06:49.509Z,2.03
2022-09-21T16:09:31.861Z,2.45
2022-09-21T16:11:59.449Z,1.88
2022-09-21T16:14:45.355Z,3.67
2022-09-21T16:17:21.211Z,2.35
2022-09-21T16:19:51.719Z,1.80
2022-09-21T16:22:22.914Z,1.58
2022-09-21T16:24:56.066Z,1.60
2022-09-21T16:27:28.847Z,2.77
2022-09-21T16:29:57.658Z,2.85
2022-09-21T16:32:32.022Z,5.47
2022-09-21T16:35:29.186Z,10.48
2022-09-21T16:37:59.026Z,16.02
2022-09-21T16:40:28.363Z,29.88
2022-09-21T16:42:56.818Z,27.20
2022-09-21T16:45:31.483Z,25.45
2022-09-21T16:47:59.766Z,20.88
2022-09-21T16:50:27.166Z,15.65
2022-09-21T16:52:54.673Z,12.15
2022-09-21T16:55:25.478Z,8.15
2022-09-21T16:57:56.067Z,5.30
2022-09-21T17:00:23.708Z,4.63
2022-09-21T17:02:51.277Z,4.30
2022-09-21T17:05:20.747Z,4.13
2022-09-21T17:07:59.558Z,4.43
2022-09-21T17:10:31.873Z,6.10
2022-09-21T17:12:59.458Z,6.53
2022-09-21T17:15:30.823Z,4.68
2022-09-21T17:17:59.059Z,2.50
2022-09-21T17:20:38.388Z,2.88
2022-09-21T17:23:06.157Z,2.35
2022-09-21T17:25:35.008Z,4.35
2022-09-21T17:28:09.586Z,3.10
2022-09-21T17:30:38.207Z,1.60
2022-09-21T17:33:06.124Z,2.10
2022-09-21T17:35:41.693Z,1.30
2022-09-21T17:38:12.552Z,1.38
2022-09-21T17:40:43.106Z,2.00
2022-09-21T17:43:13.618Z,2.53
2022-09-21T17:45:53.077Z,2.55
2022-09-21T17:48:22.507Z,1.30
2022-09-21T17:50:50.827Z,1.88
2022-09-21T17:53:37.026Z,2.10
2022-09-21T17:56:28.983Z,1.50
2022-09-21T17:59:06.988Z,2.45
2022-09-21T18:01:40.102Z,2.35
2022-09-21T18:04:10.903Z,1.90
2022-09-21T18:06:38.720Z,2.35
2022-09-21T18:09:06.627Z,4.28
2022-09-21T18:11:52.443Z,4.28
2022-09-21T18:14:43.437Z,2.55
2022-09-21T18:17:46.115Z,2.22
2022-09-21T18:20:17.586Z,3.58
2022-09-21T18:23:03.055Z,2.63
2022-09-21T18:25:47.940Z,2.20
2022-09-21T18:28:38.255Z,2.38
2022-09-21T18:31:08.498Z,3.33
2022-09-21T18:34:05.647Z,3.33
2022-09-21T18:36:49.716Z,2.83
2022-09-21T18:39:20.196Z,4.13
2022-09-21T18:41:56.617Z,2.38
2022-09-21T18:44:39.607Z,2.10
2022-09-21T18:47:19.353Z,3.20
2022-09-21T18:49:51.336Z,3.42
2022-09-21T18:52:47.583Z,4.05
2022-09-21T18:55:27.105Z,3.80
2022-09-21T18:57:58.597Z,3.33
2022-09-21T19:00:35.507Z,3.28
2022-09-21T19:03:23.639Z,4.85
2022-09-21T19:06:20.726Z,5.90
2022-09-21T19:09:03.087Z,4.32
2022-09-21T19:12:12.063Z,5.30
2022-09-21T19:14:46.215Z,5.70
2022-09-21T19:17:44.156Z,4.60
2022-09-21T19:20:49.886Z,3.42
2022-09-21T19:23:41.485Z,4.00
2022-09-21T19:26:12.347Z,2.85
2022-09-21T19:28:54.905Z,2.78
2022-09-21T19:31:22.714Z,4.45
2022-09-21T19:33:51.398Z,3.05
2022-09-21T19:36:20.480Z,2.10
2022-09-21T19:38:48.245Z,2.42
2022-09-21T19:41:24.675Z,2.90
2022-09-21T19:44:09.169Z,4.93
2022-09-21T19:47:06.781Z,4.05
2022-09-21T19:49:49.265Z,4.55
2022-09-21T19:52:19.406Z,3.90
2022-09-21T19:55:05.699Z,5.25
2022-09-21T19:57:52.416Z,3.38
2022-09-21T20:00:21.215Z,4.25
2022-09-21T20:03:04.272Z,5.72
2022-09-21T20:05:45.976Z,4.15
2022-09-21T20:08:23.104Z,5.72
2022-09-21T20:11:10.544Z,4.07
2022-09-21T20:13:50.073Z,2.38
2022-09-21T20:16:32.533Z,3.75
2022-09-21T20:19:17.722Z,4.85
2022-09-21T20:21:49.143Z,3.13
2022-09-21T20:24:26.122Z,3.92
2022-09-21T20:26:53.850Z,4.70
2022-09-21T20:29:22.086Z,3.47
2022-09-21T20:31:52.881Z,3.65
2022-09-21T20:34:20.834Z,2.78
2022-09-21T20:36:48.335Z,3.42
2022-09-21T20:39:15.875Z,3.78
2022-09-21T20:41:43.335Z,3.25
2022-09-21T20:44:13.334Z,5.13
2022-09-21T20:46:40.856Z,3.92
2022-09-21T20:49:08.735Z,7.15
2022-09-21T20:51:36.291Z,4.38
2022-09-21T20:54:04.296Z,5.07
2022-09-21T20:56:31.832Z,4.18
2022-09-21T20:58:59.597Z,5.72
2022-09-21T21:01:27.235Z,3.58
2022-09-21T21:04:01.886Z,4.38
2022-09-21T21:06:33.837Z,4.05
2022-09-21T21:09:01.403Z,2.72
2022-09-21T21:11:28.860Z,5.05
2022-09-21T21:13:56.653Z,4.60
2022-09-21T21:16:24.185Z,3.65
2022-09-21T21:18:51.695Z,3.35
2022-09-21T21:21:19.175Z,4.85
2022-09-21T21:24:09.266Z,7.00
2022-09-21T21:27:00.237Z,5.47
2022-09-21T21:29:24.620Z,4.68
2022-09-21T21:31:52.157Z,2.85
2022-09-21T21:34:19.854Z,5.15
2022-09-21T21:36:47.323Z,4.28
2022-09-21T21:39:14.801Z,4.90
2022-09-21T21:41:43.361Z,5.53
2022-09-21T21:44:11.655Z,3.22
2022-09-21T21:46:39.250Z,3.38
2022-09-21T21:49:07.245Z,4.88
2022-09-21T21:51:34.670Z,5.03
2022-09-21T21:54:02.180Z,4.25
2022-09-21T21:56:29.865Z,2.88
2022-09-21T21:58:57.352Z,3.25
2022-09-21T22:01:29.466Z,5.28
2022-09-21T22:03:59.993Z,3.95
2022-09-21T22:06:29.312Z,3.20
2022-09-21T22:08:57.747Z,3.80
2022-09-21T22:11:27.264Z,3.28
2022-09-21T22:13:55.664Z,4.63
2022-09-21T22:16:24.890Z,3.15
2022-09-21T22:18:53.152Z,3.53
2022-09-21T22:21:32.334Z,4.75
2022-09-21T22:24:02.557Z,3.38
2022-09-21T22:26:33.134Z,4.05
2022-09-21T22:29:02.193Z,3.42
2022-09-21T22:31:32.712Z,4.18
2022-09-21T22:34:00.864Z,4.88
2022-09-21T22:36:32.043Z,6.43
2022-09-21T22:39:00.072Z,3.88
2022-09-21T22:41:33.670Z,2.83
2022-09-21T22:44:02.100Z,2.92
2022-09-21T22:46:31.164Z,3.28
2022-09-21T22:49:00.663Z,3.60
2022-09-21T22:51:29.323Z,3.47
2022-09-21T22:53:57.833Z,3.35
2022-09-21T22:56:30.539Z,6.15
2022-09-21T23:02:46.046Z,6.38
2022-09-21T23:05:13.582Z,4.72
2022-09-21T23:07:41.070Z,4.55
2022-09-21T23:10:08.672Z,4.80
2022-09-21T23:12:37.277Z,4.60
2022-09-21T23:15:04.915Z,3.88
2022-09-21T23:17:32.305Z,5.72
2022-09-21T23:19:59.809Z,3.53
2022-09-21T23:22:27.430Z,3.30
2022-09-21T23:24:54.958Z,5.18
2022-09-21T23:27:22.370Z,4.53
2022-09-21T23:29:49.807Z,3.22
2022-09-21T23:32:17.363Z,6.57
2022-09-21T23:34:44.839Z,3.60
2022-09-21T23:37:12.306Z,3.03
2022-09-21T23:39:39.767Z,2.97
2022-09-21T23:42:07.407Z,3.45
2022-09-21T23:44:34.973Z,3.90
2022-09-21T23:47:02.538Z,4.25
2022-09-21T23:49:30.079Z,6.35
2022-09-21T23:51:57.529Z,4.20
2022-09-21T23:54:25.009Z,3.45
2022-09-21T23:56:52.435Z,4.80
2022-09-21T23:59:19.997Z,9.05
